Time,TemperatureF,DewpointF,PressureIn,WindDirection,WindDirectionDegrees,WindSpeedMPH,WindSpeedGustMPH,Humidity,HourlyPrecipIn,Conditions,Clouds,dailyrainin,SoftwareType,DateUTC
2013-11-05 00:00:00,45.8,33.5,30.39,East,88,5.0,10.0,62,0.00,,,0.00,Wunderground v.1.15,2013-11-05 05:00:00,
2013-11-05 00:05:00,45.6,33.3,30.38,ESE,109,4.0,10.0,62,0.00,,,0.00,Wunderground v.1.15,2013-11-05 05:05:00,
2013-11-05 00:10:00,45.5,33.2,30.38,ESE,118,4.0,4.0,62,0.00,,,0.00,Wunderground v.1.15,2013-11-05 05:10:00,
2013-11-05 00:15:00,45.5,33.2,30.38,ESE,113,4.0,6.0,62,0.00,,,0.00,Wunderground v.1.15,2013-11-05 05:15:00,
2013-11-05 00:20:00,45.6,33.7,30.39,ESE,109,4.0,5.0,63,0.00,,,0.00,Wunderground v.1.15,2013-11-05 05:20:00,
2013-11-05 00:25:00,45.4,33.9,30.39,ESE,108,3.0,5.0,64,0.00,,,0.00,Wunderground v.1.15,2013-11-05 05:25:00,
2013-11-05 00:30:00,45.2,33.7,30.39,ESE,105,3.0,3.0,64,0.00,,,0.00,Wunderground v.1.15,2013-11-05 05:30:00,
2013-11-05 00:35:00,45.2,33.3,30.39,ESE,114,3.0,4.0,63,0.00,,,0.00,Wunderground v.1.15,2013-11-05 05:35:00,
2013-11-05 00:40:00,45.3,33.0,30.39,ESE,119,4.0,8.0,62,0.00,,,0.00,Wunderground v.1.15,2013-11-05 05:40:00,
2013-11-05 00:45:00,45.4,33.1,30.38,ESE,116,4.0,8.0,62,0.00,,,0.00,Wunderground v.1.15,2013-11-05 05:45:00,
2013-11-05 00:50:00,45.4,33.5,30.38,ESE,113,4.0,9.0,63,0.00,,,0.00,Wunderground v.1.15,2013-11-05 05:50:00,
2013-11-05 00:55:00,45.4,32.7,30.39,ESE,111,5.0,9.0,61,0.00,,,0.00,Wunderground v.1.15,2013-11-05 05:55:00,
2013-11-05 01:00:00,45.4,32.7,30.39,East,100,5.0,10.0,61,0.00,,,0.00,Wunderground v.1.15,2013-11-05 06:00:00,
2013-11-05 01:05:00,45.3,33.0,30.38,East,94,4.0,10.0,62,0.00,,,0.00,Wunderground v.1.15,2013-11-05 06:05:00,
2013-11-05 01:10:00,45.3,32.6,30.39,East,101,4.0,4.0,61,0.00,,,0.00,Wunderground v.1.15,2013-11-05 06:10:00,
2013-11-05 01:15:00,45.4,33.1,30.39,East,99,4.0,4.0,62,0.00,,,0.00,Wunderground v.1.15,2013-11-05 06:15:00,
2013-11-05 01:20:00,45.3,32.2,30.39,ESE,113,3.0,4.0,60,0.00,,,0.00,Wunderground v.1.15,2013-11-05 06:20:00,
2013-11-05 01:25:00,45.2,33.3,30.39,ESE,111,3.0,4.0,63,0.00,,,0.00,Wunderground v.1.15,2013-11-05 06:25:00,
2013-11-05 01:30:00,45.2,32.1,30.39,ESE,110,4.0,9.0,60,0.00,,,0.00,Wunderground v.1.15,2013-11-05 06:30:00,
2013-11-05 01:35:00,45.2,32.1,30.38,East,85,5.0,9.0,60,0.00,,,0.00,Wunderground v.1.15,2013-11-05 06:35:00,
2013-11-05 01:40:00,45.0,31.5,30.38,ESE,111,5.0,6.0,59,0.00,,,0.00,Wunderground v.1.15,2013-11-05 06:40:00,
2013-11-05 01:45:00,45.2,31.7,30.39,ESE,119,6.0,6.0,59,0.00,,,0.00,Wunderground v.1.15,2013-11-05 06:45:00,
2013-11-05 01:50:00,45.1,32.0,30.39,ESE,113,6.0,6.0,60,0.00,,,0.00,Wunderground v.1.15,2013-11-05 06:50:00,
2013-11-05 01:55:00,44.9,32.3,30.39,ESE,110,4.0,6.0,61,0.00,,,0.00,Wunderground v.1.15,2013-11-05 06:55:00,
2013-11-05 02:00:00,44.8,31.8,30.38,ESE,105,4.0,10.0,60,0.00,,,0.00,Wunderground v.1.15,2013-11-05 07:00:00,
2013-11-05 02:05:00,44.7,31.7,30.39,ESE,119,5.0,10.0,60,0.00,,,0.00,Wunderground v.1.15,2013-11-05 07:05:00,
2013-11-05 02:15:00,44.5,31.5,30.38,ESE,111,4.0,5.0,60,0.00,,,0.00,Wunderground v.1.15,2013-11-05 07:15:00,
2013-11-05 02:25:00,44.5,31.9,30.39,South,173,4.0,6.0,61,0.00,,,0.00,Wunderground v.1.15,2013-11-05 07:25:00,
2013-11-05 02:30:00,44.4,31.8,30.39,ESE,106,3.0,3.0,61,0.00,,,0.00,Wunderground v.1.15,2013-11-05 07:30:00,
2013-11-05 02:35:00,44.3,31.7,30.40,SE,124,2.0,4.0,61,0.00,,,0.00,Wunderground v.1.15,2013-11-05 07:35:00,
2013-11-05 02:40:00,44.3,31.7,30.40,ESE,107,3.0,3.0,61,0.00,,,0.00,Wunderground v.1.15,2013-11-05 07:40:00,
2013-11-05 02:45:00,44.3,32.1,30.39,ESE,111,5.0,7.0,62,0.00,,,0.00,Wunderground v.1.15,2013-11-05 07:45:00,
2013-11-05 02:50:00,44.2,32.4,30.40,ESE,123,6.0,11.0,63,0.00,,,0.00,Wunderground v.1.15,2013-11-05 07:50:00,
2013-11-05 02:55:00,44.1,32.3,30.40,ESE,105,6.0,11.0,63,0.00,,,0.00,Wunderground v.1.15,2013-11-05 07:55:00,
2013-11-05 03:00:00,44.0,32.2,30.39,ESE,107,6.0,12.0,63,0.00,,,0.00,Wunderground v.1.15,2013-11-05 08:00:00,
2013-11-05 03:05:00,44.0,32.6,30.40,SE,139,5.0,12.0,64,0.00,,,0.00,Wunderground v.1.15,2013-11-05 08:05:00,
2013-11-05 03:15:00,43.8,33.2,30.39,East,92,4.0,5.0,66,0.00,,,0.00,Wunderground v.1.15,2013-11-05 08:15:00,
2013-11-05 03:25:00,43.5,32.9,30.38,East,99,5.0,6.0,66,0.00,,,0.00,Wunderground v.1.15,2013-11-05 08:25:00,
2013-11-05 03:30:00,43.4,32.8,30.39,ESE,114,6.0,6.0,66,0.00,,,0.00,Wunderground v.1.15,2013-11-05 08:30:00,
2013-11-05 03:35:00,43.2,33.0,30.39,ESE,105,5.0,6.0,67,0.00,,,0.00,Wunderground v.1.15,2013-11-05 08:35:00,
2013-11-05 03:40:00,43.1,33.3,30.39,ESE,110,4.0,4.0,68,0.00,,,0.00,Wunderground v.1.15,2013-11-05 08:40:00,
2013-11-05 03:45:00,42.8,33.0,30.38,ESE,113,4.0,5.0,68,0.00,,,0.00,Wunderground v.1.15,2013-11-05 08:45:00,
2013-11-05 03:50:00,42.6,32.8,30.39,ENE,74,5.0,5.0,68,0.00,,,0.00,Wunderground v.1.15,2013-11-05 08:50:00,
2013-11-05 03:55:00,42.6,32.8,30.38,ESE,106,6.0,6.0,68,0.00,,,0.00,Wunderground v.1.15,2013-11-05 08:55:00,
2013-11-05 04:00:00,42.5,33.0,30.38,ESE,110,5.0,5.0,69,0.00,,,0.00,Wunderground v.1.15,2013-11-05 09:00:00,
2013-11-05 04:05:00,42.4,32.9,30.38,ESE,119,4.0,5.0,69,0.00,,,0.00,Wunderground v.1.15,2013-11-05 09:05:00,
2013-11-05 04:15:00,42.3,32.8,30.39,SE,125,3.0,7.0,69,0.00,,,0.00,Wunderground v.1.15,2013-11-05 09:15:00,
2013-11-05 04:20:00,42.2,32.8,30.39,ESE,118,3.0,3.0,69,0.00,,,0.00,Wunderground v.1.15,2013-11-05 09:20:00,
2013-11-05 04:25:00,42.2,32.8,30.39,East,92,4.0,4.0,69,0.00,,,0.00,Wunderground v.1.15,2013-11-05 09:25:00,
2013-11-05 04:30:00,42.2,32.8,30.39,East,92,4.0,5.0,69,0.00,,,0.00,Wunderground v.1.15,2013-11-05 09:30:00,
2013-11-05 04:35:00,42.3,32.8,30.39,East,90,5.0,5.0,69,0.00,,,0.00,Wunderground v.1.15,2013-11-05 09:35:00,
2013-11-05 04:40:00,42.4,32.6,30.39,ESE,109,5.0,5.0,68,0.00,,,0.00,Wunderground v.1.15,2013-11-05 09:40:00,
2013-11-05 04:45:00,42.3,32.5,30.40,ESE,116,3.0,5.0,68,0.00,,,0.00,Wunderground v.1.15,2013-11-05 09:45:00,
2013-11-05 04:50:00,42.3,32.5,30.40,ESE,112,2.0,2.0,68,0.00,,,0.00,Wunderground v.1.15,2013-11-05 09:50:00,
2013-11-05 05:00:00,42.2,33.1,30.40,ESE,119,1.0,1.0,70,0.00,,,0.00,Wunderground v.1.15,2013-11-05 10:00:00,
2013-11-05 05:05:00,42.0,32.6,30.40,ESE,111,1.0,1.0,69,0.00,,,0.00,Wunderground v.1.15,2013-11-05 10:05:00,
2013-11-05 05:10:00,41.6,32.9,30.40,ESE,110,1.0,1.0,71,0.00,,,0.00,Wunderground v.1.15,2013-11-05 10:10:00,
2013-11-05 05:15:00,41.1,32.4,30.40,ESE,111,1.0,1.0,71,0.00,,,0.00,Wunderground v.1.15,2013-11-05 10:15:00,
2013-11-05 05:20:00,40.9,32.2,30.40,ESE,111,0.0,0.0,71,0.00,,,0.00,Wunderground v.1.15,2013-11-05 10:20:00,
2013-11-05 05:25:00,40.8,32.1,30.40,ESE,110,0.0,0.0,71,0.00,,,0.00,Wunderground v.1.15,2013-11-05 10:25:00,
2013-11-05 05:30:00,40.8,32.1,30.40,ESE,111,0.0,0.0,71,0.00,,,0.00,Wunderground v.1.15,2013-11-05 10:30:00,
2013-11-05 05:35:00,40.8,32.5,30.40,ESE,111,0.0,0.0,72,0.00,,,0.00,Wunderground v.1.15,2013-11-05 10:35:00,
2013-11-05 05:40:00,40.8,32.1,30.40,ESE,110,0.0,0.0,71,0.00,,,0.00,Wunderground v.1.15,2013-11-05 10:40:00,
2013-11-05 05:45:00,40.8,32.1,30.40,ESE,111,0.0,0.0,71,0.00,,,0.00,Wunderground v.1.15,2013-11-05 10:45:00,
2013-11-05 05:50:00,40.8,32.5,30.40,ESE,111,0.0,0.0,72,0.00,,,0.00,Wunderground v.1.15,2013-11-05 10:50:00,
2013-11-05 05:55:00,40.7,32.0,30.39,ESE,111,0.0,0.0,71,0.00,,,0.00,Wunderground v.1.15,2013-11-05 10:55:00,
2013-11-05 06:00:00,40.7,32.4,30.39,ESE,110,0.0,2.0,72,0.00,,,0.00,Wunderground v.1.15,2013-11-05 11:00:00,
2013-11-05 06:05:00,40.6,32.6,30.39,ESE,110,0.0,2.0,73,0.00,,,0.00,Wunderground v.1.15,2013-11-05 11:05:00,
2013-11-05 06:10:00,40.4,32.4,30.39,ESE,111,0.0,0.0,73,0.00,,,0.00,Wunderground v.1.15,2013-11-05 11:10:00,
2013-11-05 06:15:00,40.4,32.4,30.40,ESE,110,0.0,2.0,73,0.00,,,0.00,Wunderground v.1.15,2013-11-05 11:15:00,
2013-11-05 06:20:00,40.1,33.1,30.39,ESE,110,0.0,0.0,76,0.00,,,0.00,Wunderground v.1.15,2013-11-05 11:20:00,
2013-11-05 06:25:00,39.9,32.3,30.39,ESE,111,0.0,0.0,74,0.00,,,0.00,Wunderground v.1.15,2013-11-05 11:25:00,
2013-11-05 06:30:00,39.9,31.9,30.39,ESE,110,0.0,0.0,73,0.00,,,0.00,Wunderground v.1.15,2013-11-05 11:30:00,
2013-11-05 06:35:00,40.1,31.8,30.39,ESE,111,0.0,0.0,72,0.00,,,0.00,Wunderground v.1.15,2013-11-05 11:35:00,
2013-11-05 06:40:00,40.2,32.2,30.39,ESE,111,0.0,0.0,73,0.00,,,0.00,Wunderground v.1.15,2013-11-05 11:40:00,
2013-11-05 06:45:00,40.2,32.2,30.39,ESE,111,0.0,0.0,73,0.00,,,0.00,Wunderground v.1.15,2013-11-05 11:45:00,
2013-11-05 06:50:00,40.2,32.2,30.39,ESE,110,0.0,0.0,73,0.00,,,0.00,Wunderground v.1.15,2013-11-05 11:50:00,
2013-11-05 06:55:00,40.1,32.1,30.39,ESE,111,0.0,0.0,73,0.00,,,0.00,Wunderground v.1.15,2013-11-05 11:55:00,
2013-11-05 07:00:00,40.1,32.1,30.39,ESE,111,0.0,0.0,73,0.00,,,0.00,Wunderground v.1.15,2013-11-05 12:00:00,
2013-11-05 07:05:00,40.0,32.0,30.39,ESE,111,0.0,0.0,73,0.00,,,0.00,Wunderground v.1.15,2013-11-05 12:05:00,
2013-11-05 07:10:00,40.0,32.0,30.39,ESE,111,0.0,0.0,73,0.00,,,0.00,Wunderground v.1.15,2013-11-05 12:10:00,
2013-11-05 07:15:00,40.0,31.7,30.40,ESE,111,0.0,0.0,72,0.00,,,0.00,Wunderground v.1.15,2013-11-05 12:15:00,
2013-11-05 07:20:00,40.0,32.0,30.40,ESE,111,0.0,0.0,73,0.00,,,0.00,Wunderground v.1.15,2013-11-05 12:20:00,
2013-11-05 07:25:00,40.1,32.1,30.40,ESE,110,0.0,0.0,73,0.00,,,0.00,Wunderground v.1.15,2013-11-05 12:25:00,
2013-11-05 07:30:00,40.2,32.9,30.40,ESE,110,0.0,0.0,75,0.00,,,0.00,Wunderground v.1.15,2013-11-05 12:30:00,
2013-11-05 07:35:00,40.1,33.1,30.40,ESE,111,0.0,0.0,76,0.00,,,0.00,Wunderground v.1.15,2013-11-05 12:35:00,
2013-11-05 07:40:00,40.1,32.8,30.40,ESE,111,0.0,0.0,75,0.00,,,0.00,Wunderground v.1.15,2013-11-05 12:40:00,
2013-11-05 07:45:00,40.2,32.9,30.40,ESE,110,0.0,0.0,75,0.00,,,0.00,Wunderground v.1.15,2013-11-05 12:45:00,
2013-11-05 07:55:00,40.6,33.6,30.41,ESE,111,0.0,0.0,76,0.00,,,0.00,Wunderground v.1.15,2013-11-05 12:55:00,
2013-11-05 08:00:00,40.9,33.2,30.41,ESE,111,0.0,0.0,74,0.00,,,0.00,Wunderground v.1.15,2013-11-05 13:00:00,
2013-11-05 08:05:00,41.9,33.9,30.41,ESE,111,0.0,0.0,73,0.00,,,0.00,Wunderground v.1.15,2013-11-05 13:05:00,
2013-11-05 08:10:00,43.0,34.2,30.41,ESE,111,0.0,1.0,71,0.00,,,0.00,Wunderground v.1.15,2013-11-05 13:10:00,
2013-11-05 08:15:00,43.5,34.7,30.41,ESE,110,0.0,1.0,71,0.00,,,0.00,Wunderground v.1.15,2013-11-05 13:15:00,
2013-11-05 08:20:00,43.5,34.4,30.41,ESE,111,0.0,0.0,70,0.00,,,0.00,Wunderground v.1.15,2013-11-05 13:20:00,
2013-11-05 08:25:00,43.7,34.9,30.41,ESE,111,0.0,1.0,71,0.00,,,0.00,Wunderground v.1.15,2013-11-05 13:25:00,
2013-11-05 08:30:00,44.0,33.0,30.41,ESE,110,1.0,1.0,65,0.00,,,0.00,Wunderground v.1.15,2013-11-05 13:30:00,
2013-11-05 08:35:00,44.1,32.7,30.41,ESE,110,1.0,1.0,64,0.00,,,0.00,Wunderground v.1.15,2013-11-05 13:35:00,
2013-11-05 08:40:00,44.1,33.5,30.41,ESE,111,1.0,1.0,66,0.00,,,0.00,Wunderground v.1.15,2013-11-05 13:40:00,
2013-11-05 08:45:00,44.2,33.6,30.41,ESE,110,0.0,1.0,66,0.00,,,0.00,Wunderground v.1.15,2013-11-05 13:45:00,
2013-11-05 08:50:00,44.3,34.4,30.41,ESE,111,0.0,1.0,68,0.00,,,0.00,Wunderground v.1.15,2013-11-05 13:50:00,
2013-11-05 08:55:00,44.6,34.3,30.41,ESE,111,0.0,1.0,67,0.00,,,0.00,Wunderground v.1.15,2013-11-05 13:55:00,
2013-11-05 09:00:00,45.1,34.4,30.40,ESE,111,0.0,1.0,66,0.00,,,0.00,Wunderground v.1.15,2013-11-05 14:00:00,
2013-11-05 09:05:00,46.2,35.1,30.40,ESE,111,1.0,1.0,65,0.00,,,0.00,Wunderground v.1.15,2013-11-05 14:05:00,
2013-11-05 09:10:00,46.9,35.4,30.40,ESE,111,1.0,1.0,64,0.00,,,0.00,Wunderground v.1.15,2013-11-05 14:10:00,
2013-11-05 09:15:00,47.2,35.2,30.41,ESE,111,0.0,1.0,63,0.00,,,0.00,Wunderground v.1.15,2013-11-05 14:15:00,
2013-11-05 09:20:00,47.4,35.8,30.41,ESE,111,0.0,1.0,64,0.00,,,0.00,Wunderground v.1.15,2013-11-05 14:20:00,
2013-11-05 09:25:00,47.9,35.9,30.41,ESE,111,0.0,1.0,63,0.00,,,0.00,Wunderground v.1.15,2013-11-05 14:25:00,
2013-11-05 09:30:00,47.9,35.5,30.41,ESE,110,0.0,0.0,62,0.00,,,0.00,Wunderground v.1.15,2013-11-05 14:30:00,
2013-11-05 09:35:00,48.4,35.6,30.41,ESE,111,0.0,0.0,61,0.00,,,0.00,Wunderground v.1.15,2013-11-05 14:35:00,
2013-11-05 09:40:00,49.4,35.2,30.41,ESE,111,1.0,2.0,58,0.00,,,0.00,Wunderground v.1.15,2013-11-05 14:40:00,
2013-11-05 09:45:00,50.5,35.4,30.41,ESE,121,2.0,2.0,56,0.00,,,0.00,Wunderground v.1.15,2013-11-05 14:45:00,
2013-11-05 09:50:00,51.5,35.4,30.41,ESE,121,1.0,1.0,54,0.00,,,0.00,Wunderground v.1.15,2013-11-05 14:50:00,
2013-11-05 09:55:00,52.2,37.4,30.41,ESE,121,0.0,1.0,57,0.00,,,0.00,Wunderground v.1.15,2013-11-05 14:55:00,
2013-11-05 10:00:00,52.8,38.0,30.41,ESE,121,0.0,3.0,57,0.00,,,0.00,Wunderground v.1.15,2013-11-05 15:00:00,
2013-11-05 10:05:00,53.1,36.4,30.41,ESE,121,0.0,3.0,53,0.00,,,0.00,Wunderground v.1.15,2013-11-05 15:05:00,
2013-11-05 10:10:00,53.8,36.1,30.40,SE,125,0.0,0.0,51,0.00,,,0.00,Wunderground v.1.15,2013-11-05 15:10:00,
2013-11-05 10:15:00,54.3,36.5,30.40,SSE,162,1.0,2.0,51,0.00,,,0.00,Wunderground v.1.15,2013-11-05 15:15:00,
2013-11-05 10:20:00,54.9,36.6,30.40,SE,141,1.0,1.0,50,0.00,,,0.00,Wunderground v.1.15,2013-11-05 15:20:00,
2013-11-05 10:25:00,54.9,35.6,30.41,ESE,107,2.0,3.0,48,0.00,,,0.00,Wunderground v.1.15,2013-11-05 15:25:00,
2013-11-05 10:30:00,54.7,35.9,30.40,ESE,109,2.0,2.0,49,0.00,,,0.00,Wunderground v.1.15,2013-11-05 15:30:00,
2013-11-05 10:35:00,55.2,35.8,30.40,ESE,113,2.0,3.0,48,0.00,,,0.00,Wunderground v.1.15,2013-11-05 15:35:00,
2013-11-05 10:40:00,55.3,35.4,30.40,ESE,119,3.0,3.0,47,0.00,,,0.00,Wunderground v.1.15,2013-11-05 15:40:00,
2013-11-05 10:45:00,56.2,36.2,30.40,South,173,3.0,3.0,47,0.00,,,0.00,Wunderground v.1.15,2013-11-05 15:45:00,
2013-11-05 10:50:00,57.1,35.9,30.40,ESE,105,3.0,7.0,45,0.00,,,0.00,Wunderground v.1.15,2013-11-05 15:50:00,
2013-11-05 10:55:00,57.2,36.6,30.40,ESE,111,4.0,7.0,46,0.00,,,0.00,Wunderground v.1.15,2013-11-05 15:55:00,
2013-11-05 11:00:00,56.8,36.8,30.41,ESE,113,4.0,5.0,47,0.00,,,0.00,Wunderground v.1.15,2013-11-05 16:00:00,
2013-11-05 11:05:00,57.4,36.2,30.41,ESE,111,4.0,6.0,45,0.00,,,0.00,Wunderground v.1.15,2013-11-05 16:05:00,
2013-11-05 11:10:00,57.9,35.5,30.41,SE,128,4.0,4.0,43,0.00,,,0.00,Wunderground v.1.15,2013-11-05 16:10:00,
2013-11-05 11:15:00,58.7,37.4,30.40,SE,126,3.0,4.0,45,0.00,,,0.00,Wunderground v.1.15,2013-11-05 16:15:00,
2013-11-05 11:20:00,59.0,35.3,30.41,SW,216,3.0,3.0,41,0.00,,,0.00,Wunderground v.1.15,2013-11-05 16:20:00,
2013-11-05 11:25:00,59.7,37.2,30.40,SE,142,3.0,3.0,43,0.00,,,0.00,Wunderground v.1.15,2013-11-05 16:25:00,
2013-11-05 11:30:00,60.0,36.8,30.40,ESE,109,3.0,3.0,42,0.00,,,0.00,Wunderground v.1.15,2013-11-05 16:30:00,
2013-11-05 11:35:00,60.0,35.6,30.40,East,100,4.0,4.0,40,0.00,,,0.00,Wunderground v.1.15,2013-11-05 16:35:00,
2013-11-05 11:40:00,59.8,36.0,30.39,ESE,108,3.0,5.0,41,0.00,,,0.00,Wunderground v.1.15,2013-11-05 16:40:00,
2013-11-05 11:45:00,60.1,35.7,30.39,ESE,117,3.0,5.0,40,0.00,,,0.00,Wunderground v.1.15,2013-11-05 16:45:00,
2013-11-05 11:50:00,60.2,35.8,30.39,ENE,58,3.0,3.0,40,0.00,,,0.00,Wunderground v.1.15,2013-11-05 16:50:00,
2013-11-05 11:55:00,60.6,36.8,30.39,ESE,110,3.0,3.0,41,0.00,,,0.00,Wunderground v.1.15,2013-11-05 16:55:00,
2013-11-05 12:00:00,60.9,35.8,30.39,SE,133,3.0,3.0,39,0.00,,,0.00,Wunderground v.1.15,2013-11-05 17:00:00,
2013-11-05 12:05:00,61.1,37.2,30.39,ESE,110,2.0,4.0,41,0.00,,,0.00,Wunderground v.1.15,2013-11-05 17:05:00,
2013-11-05 12:10:00,61.1,35.3,30.39,SSE,161,2.0,3.0,38,0.00,,,0.00,Wunderground v.1.15,2013-11-05 17:10:00,
2013-11-05 12:15:00,61.2,36.0,30.38,ESE,110,2.0,3.0,39,0.00,,,0.00,Wunderground v.1.15,2013-11-05 17:15:00,
2013-11-05 12:20:00,61.3,36.1,30.38,SE,137,2.0,2.0,39,0.00,,,0.00,Wunderground v.1.15,2013-11-05 17:20:00,
2013-11-05 12:25:00,61.8,36.6,30.37,SSE,154,2.0,3.0,39,0.00,,,0.00,Wunderground v.1.15,2013-11-05 17:25:00,
2013-11-05 12:30:00,62.1,36.2,30.37,SE,133,2.0,2.0,38,0.00,,,0.00,Wunderground v.1.15,2013-11-05 17:30:00,
2013-11-05 12:35:00,62.2,36.9,30.37,West,259,2.0,3.0,39,0.00,,,0.00,Wunderground v.1.15,2013-11-05 17:35:00,
2013-11-05 12:45:00,61.6,36.4,30.37,SSE,150,2.0,2.0,39,0.00,,,0.00,Wunderground v.1.15,2013-11-05 17:45:00,
2013-11-05 12:50:00,61.6,36.4,30.36,West,267,1.0,1.0,39,0.00,,,0.00,Wunderground v.1.15,2013-11-05 17:50:00,
2013-11-05 12:55:00,61.3,37.4,30.37,ESE,112,3.0,3.0,41,0.00,,,0.00,Wunderground v.1.15,2013-11-05 17:55:00,
2013-11-05 12:59:00,61.3,36.8,30.37,East,101,3.0,3.0,40,0.00,,,0.00,Wunderground v.1.15,2013-11-05 17:59:00,
2013-11-05 13:05:00,61.8,37.8,30.36,ESE,103,3.0,4.0,41,0.00,,,0.00,Wunderground v.1.15,2013-11-05 18:05:00,
2013-11-05 13:14:00,62.8,37.5,30.36,ESE,111,3.0,5.0,39,0.00,,,0.00,Wunderground v.1.15,2013-11-05 18:14:00,
2013-11-05 13:20:00,62.9,36.9,30.36,East,84,3.0,3.0,38,0.00,,,0.00,Wunderground v.1.15,2013-11-05 18:20:00,
2013-11-05 13:25:00,63.3,37.9,30.36,ESE,117,3.0,5.0,39,0.00,,,0.00,Wunderground v.1.15,2013-11-05 18:25:00,
2013-11-05 13:30:00,63.5,38.1,30.35,ESE,113,3.0,3.0,39,0.00,,,0.00,Wunderground v.1.15,2013-11-05 18:30:00,
2013-11-05 13:35:00,63.6,37.5,30.35,South,172,3.0,3.0,38,0.00,,,0.00,Wunderground v.1.15,2013-11-05 18:35:00,
2013-11-05 13:40:00,63.6,37.5,30.35,ESE,117,2.0,5.0,38,0.00,,,0.00,Wunderground v.1.15,2013-11-05 18:40:00,
2013-11-05 13:45:00,63.1,37.7,30.35,ESE,114,3.0,5.0,39,0.00,,,0.00,Wunderground v.1.15,2013-11-05 18:45:00,
2013-11-05 13:50:00,63.1,38.4,30.34,ESE,119,3.0,3.0,40,0.00,,,0.00,Wunderground v.1.15,2013-11-05 18:50:00,
2013-11-05 13:55:00,63.0,37.6,30.34,ESE,120,3.0,3.0,39,0.00,,,0.00,Wunderground v.1.15,2013-11-05 18:55:00,
2013-11-05 14:00:00,63.0,38.9,30.34,ESE,106,3.0,7.0,41,0.00,,,0.00,Wunderground v.1.15,2013-11-05 19:00:00,
2013-11-05 14:05:00,63.2,38.5,30.34,ESE,113,4.0,7.0,40,0.00,,,0.00,Wunderground v.1.15,2013-11-05 19:05:00,
2013-11-05 14:10:00,63.5,39.4,30.34,ESE,114,3.0,3.0,41,0.00,,,0.00,Wunderground v.1.15,2013-11-05 19:10:00,
2013-11-05 14:15:00,63.7,38.9,30.34,ESE,116,3.0,5.0,40,0.00,,,0.00,Wunderground v.1.15,2013-11-05 19:15:00,
2013-11-05 14:20:00,63.4,38.6,30.34,ESE,109,3.0,4.0,40,0.00,,,0.00,Wunderground v.1.15,2013-11-05 19:20:00,
2013-11-05 14:25:00,63.3,39.2,30.34,East,101,3.0,4.0,41,0.00,,,0.00,Wunderground v.1.15,2013-11-05 19:25:00,
2013-11-05 14:30:00,63.2,38.5,30.34,ESE,117,3.0,4.0,40,0.00,,,0.00,Wunderground v.1.15,2013-11-05 19:30:00,
2013-11-05 14:40:00,63.0,39.5,30.34,ESE,110,3.0,3.0,42,0.00,,,0.00,Wunderground v.1.15,2013-11-05 19:40:00,
2013-11-05 14:45:00,63.2,39.1,30.34,ESE,119,2.0,3.0,41,0.00,,,0.00,Wunderground v.1.15,2013-11-05 19:45:00,
2013-11-05 14:50:00,63.4,38.6,30.34,East,88,2.0,2.0,40,0.00,,,0.00,Wunderground v.1.15,2013-11-05 19:50:00,
2013-11-05 14:55:00,63.8,38.4,30.33,SE,130,3.0,5.0,39,0.00,,,0.00,Wunderground v.1.15,2013-11-05 19:55:00,
2013-11-05 15:00:00,64.0,38.5,30.33,ESE,113,3.0,3.0,39,0.00,,,0.00,Wunderground v.1.15,2013-11-05 20:00:00,
2013-11-05 15:05:00,64.3,38.1,30.33,ESE,111,2.0,3.0,38,0.00,,,0.00,Wunderground v.1.15,2013-11-05 20:05:00,
2013-11-05 15:10:00,64.0,37.9,30.33,SSE,157,2.0,2.0,38,0.00,,,0.00,Wunderground v.1.15,2013-11-05 20:10:00,
2013-11-05 15:15:00,64.2,38.7,30.33,SSE,168,2.0,2.0,39,0.00,,,0.00,Wunderground v.1.15,2013-11-05 20:15:00,
2013-11-05 15:20:00,64.1,39.3,30.33,SE,138,1.0,1.0,40,0.00,,,0.00,Wunderground v.1.15,2013-11-05 20:20:00,
2013-11-05 15:25:00,63.7,38.3,30.33,SE,138,1.0,1.0,39,0.00,,,0.00,Wunderground v.1.15,2013-11-05 20:25:00,
2013-11-05 15:30:00,63.3,38.6,30.33,SE,139,1.0,1.0,40,0.00,,,0.00,Wunderground v.1.15,2013-11-05 20:30:00,
2013-11-05 15:35:00,63.1,39.0,30.33,SE,138,1.0,1.0,41,0.00,,,0.00,Wunderground v.1.15,2013-11-05 20:35:00,
2013-11-05 15:40:00,62.8,38.1,30.33,SE,138,0.0,0.0,40,0.00,,,0.00,Wunderground v.1.15,2013-11-05 20:40:00,
2013-11-05 15:45:00,62.5,39.1,30.32,SE,138,0.0,0.0,42,0.00,,,0.00,Wunderground v.1.15,2013-11-05 20:45:00,
2013-11-05 15:50:00,62.2,39.4,30.32,ESE,123,1.0,1.0,43,0.00,,,0.00,Wunderground v.1.15,2013-11-05 20:50:00,
2013-11-05 15:55:00,62.3,38.9,30.32,ESE,114,1.0,3.0,42,0.00,,,0.00,Wunderground v.1.15,2013-11-05 20:55:00,
2013-11-05 16:00:00,62.2,40.0,30.32,East,97,2.0,2.0,44,0.00,,,0.00,Wunderground v.1.15,2013-11-05 21:00:00,
2013-11-05 16:05:00,62.0,39.2,30.32,East,100,2.0,2.0,43,0.00,,,0.00,Wunderground v.1.15,2013-11-05 21:05:00,
2013-11-05 16:10:00,61.7,39.0,30.32,East,100,1.0,1.0,43,0.00,,,0.00,Wunderground v.1.15,2013-11-05 21:10:00,
2013-11-05 16:15:00,61.5,38.8,30.32,ESE,115,1.0,2.0,43,0.00,,,0.00,Wunderground v.1.15,2013-11-05 21:15:00,
2013-11-05 16:20:00,61.3,38.6,30.31,East,96,2.0,3.0,43,0.00,,,0.00,Wunderground v.1.15,2013-11-05 21:20:00,
2013-11-05 16:25:00,61.0,38.9,30.31,ESE,103,2.0,3.0,44,0.00,,,0.00,Wunderground v.1.15,2013-11-05 21:25:00,
2013-11-05 16:35:00,60.0,38.0,30.31,SE,137,2.0,3.0,44,0.00,,,0.00,Wunderground v.1.15,2013-11-05 21:35:00,
2013-11-05 16:40:00,59.5,37.0,30.31,SE,128,1.0,2.0,43,0.00,,,0.00,Wunderground v.1.15,2013-11-05 21:40:00,
2013-11-05 16:45:00,59.0,37.1,30.31,ESE,112,1.0,2.0,44,0.00,,,0.00,Wunderground v.1.15,2013-11-05 21:45:00,
2013-11-05 16:50:00,58.9,37.6,30.31,ESE,105,1.0,1.0,45,0.00,,,0.00,Wunderground v.1.15,2013-11-05 21:50:00,
2013-11-05 16:55:00,58.5,37.2,30.31,East,88,1.0,1.0,45,0.00,,,0.00,Wunderground v.1.15,2013-11-05 21:55:00,
2013-11-05 17:00:00,58.2,37.5,30.31,ESE,106,1.0,5.0,46,0.00,,,0.00,Wunderground v.1.15,2013-11-05 22:00:00,
2013-11-05 17:05:00,57.9,37.8,30.31,ESE,105,1.0,5.0,47,0.00,,,0.00,Wunderground v.1.15,2013-11-05 22:05:00,
2013-11-05 17:10:00,57.7,38.7,30.31,ESE,105,1.0,1.0,49,0.00,,,0.00,Wunderground v.1.15,2013-11-05 22:10:00,
2013-11-05 17:15:00,57.4,37.9,30.31,ESE,105,0.0,1.0,48,0.00,,,0.00,Wunderground v.1.15,2013-11-05 22:15:00,
2013-11-05 17:20:00,57.1,37.0,30.31,ESE,107,1.0,1.0,47,0.00,,,0.00,Wunderground v.1.15,2013-11-05 22:20:00,
2013-11-05 17:25:00,56.9,36.9,30.31,ESE,108,1.0,1.0,47,0.00,,,0.00,Wunderground v.1.15,2013-11-05 22:25:00,
2013-11-05 17:30:00,56.7,37.7,30.30,ESE,108,1.0,1.0,49,0.00,,,0.00,Wunderground v.1.15,2013-11-05 22:30:00,
2013-11-05 17:35:00,56.4,36.9,30.30,ESE,107,0.0,1.0,48,0.00,,,0.00,Wunderground v.1.15,2013-11-05 22:35:00,
2013-11-05 17:40:00,56.2,37.3,30.31,ESE,107,0.0,0.0,49,0.00,,,0.00,Wunderground v.1.15,2013-11-05 22:40:00,
2013-11-05 17:45:00,56.0,37.1,30.31,ESE,108,0.0,0.0,49,0.00,,,0.00,Wunderground v.1.15,2013-11-05 22:45:00,
2013-11-05 17:50:00,55.8,36.9,30.30,ESE,108,0.0,0.0,49,0.00,,,0.00,Wunderground v.1.15,2013-11-05 22:50:00,
2013-11-05 18:00:00,55.2,37.4,30.30,ESE,113,0.0,5.0,51,0.00,,,0.00,Wunderground v.1.15,2013-11-05 23:00:00,
2013-11-05 18:05:00,54.8,36.5,30.31,ESE,113,0.0,5.0,50,0.00,,,0.00,Wunderground v.1.15,2013-11-05 23:05:00,
2013-11-05 18:10:00,54.6,36.8,30.31,ESE,113,0.0,0.0,51,0.00,,,0.00,Wunderground v.1.15,2013-11-05 23:10:00,
2013-11-05 18:15:00,54.3,36.5,30.31,ESE,113,0.0,0.0,51,0.00,,,0.00,Wunderground v.1.15,2013-11-05 23:15:00,
2013-11-05 18:20:00,54.2,36.5,30.31,ESE,113,0.0,0.0,51,0.00,,,0.00,Wunderground v.1.15,2013-11-05 23:20:00,
2013-11-05 18:25:00,54.0,35.8,30.31,ESE,113,0.0,0.0,50,0.00,,,0.00,Wunderground v.1.15,2013-11-05 23:25:00,
2013-11-05 18:29:00,53.9,36.2,30.32,ESE,113,0.0,1.0,51,0.00,,,0.00,Wunderground v.1.15,2013-11-05 23:29:00,
2013-11-05 18:35:00,53.5,36.8,30.32,ESE,113,0.0,1.0,53,0.00,,,0.00,Wunderground v.1.15,2013-11-05 23:35:00,
2013-11-05 18:40:00,53.2,37.0,30.32,ESE,113,1.0,1.0,54,0.00,,,0.00,Wunderground v.1.15,2013-11-05 23:40:00,
2013-11-05 18:45:00,52.7,37.4,30.32,ESE,113,1.0,1.0,56,0.00,,,0.00,Wunderground v.1.15,2013-11-05 23:45:00,
2013-11-05 18:50:00,52.3,36.1,30.32,ESE,113,1.0,1.0,54,0.00,,,0.00,Wunderground v.1.15,2013-11-05 23:50:00,
2013-11-05 18:55:00,52.1,35.9,30.32,ESE,114,1.0,1.0,54,0.00,,,0.00,Wunderground v.1.15,2013-11-05 23:55:00,
2013-11-05 19:00:00,52.0,36.8,30.32,ESE,114,1.0,1.0,56,0.00,,,0.00,Wunderground v.1.15,2013-11-06 00:00:00,
2013-11-05 19:05:00,51.8,36.1,30.32,ESE,114,1.0,1.0,55,0.00,,,0.00,Wunderground v.1.15,2013-11-06 00:05:00,
2013-11-05 19:10:00,51.7,36.0,30.32,ESE,114,0.0,0.0,55,0.00,,,0.00,Wunderground v.1.15,2013-11-06 00:10:00,
2013-11-05 19:15:00,51.6,35.5,30.32,ESE,114,0.0,0.0,54,0.00,,,0.00,Wunderground v.1.15,2013-11-06 00:15:00,
2013-11-05 19:20:00,51.5,36.3,30.31,ESE,114,0.0,0.0,56,0.00,,,0.00,Wunderground v.1.15,2013-11-06 00:20:00,
2013-11-05 19:25:00,51.4,36.2,30.32,ESE,110,1.0,2.0,56,0.00,,,0.00,Wunderground v.1.15,2013-11-06 00:25:00,
2013-11-05 19:35:00,51.2,35.1,30.32,ESE,111,0.0,1.0,54,0.00,,,0.00,Wunderground v.1.15,2013-11-06 00:35:00,
2013-11-05 19:40:00,51.3,35.2,30.32,ESE,111,0.0,0.0,54,0.00,,,0.00,Wunderground v.1.15,2013-11-06 00:40:00,
2013-11-05 19:45:00,51.4,35.3,30.32,ESE,110,0.0,0.0,54,0.00,,,0.00,Wunderground v.1.15,2013-11-06 00:45:00,
2013-11-05 19:50:00,51.4,35.8,30.32,ESE,111,0.0,0.0,55,0.00,,,0.00,Wunderground v.1.15,2013-11-06 00:50:00,
2013-11-05 19:54:00,51.3,35.2,30.32,ESE,111,0.0,0.0,54,0.00,,,0.00,Wunderground v.1.15,2013-11-06 00:54:00,
2013-11-05 20:00:00,51.3,35.2,30.32,ESE,110,0.0,3.0,54,0.00,,,0.00,Wunderground v.1.15,2013-11-06 01:00:00,
2013-11-05 20:05:00,51.3,34.7,30.32,ESE,111,0.0,3.0,53,0.00,,,0.00,Wunderground v.1.15,2013-11-06 01:05:00,
2013-11-05 20:10:00,51.3,35.2,30.32,ESE,111,0.0,0.0,54,0.00,,,0.00,Wunderground v.1.15,2013-11-06 01:10:00,
2013-11-05 20:15:00,51.2,35.6,30.32,ESE,110,0.0,0.0,55,0.00,,,0.00,Wunderground v.1.15,2013-11-06 01:15:00,
2013-11-05 20:20:00,51.0,34.9,30.32,ESE,111,0.0,0.0,54,0.00,,,0.00,Wunderground v.1.15,2013-11-06 01:20:00,
2013-11-05 20:25:00,51.0,35.4,30.32,ESE,111,0.0,0.0,55,0.00,,,0.00,Wunderground v.1.15,2013-11-06 01:25:00,
2013-11-05 20:30:00,50.8,35.2,30.32,ESE,111,0.0,0.0,55,0.00,,,0.00,Wunderground v.1.15,2013-11-06 01:30:00,
2013-11-05 20:35:00,50.7,35.1,30.32,ESE,110,0.0,0.0,55,0.00,,,0.00,Wunderground v.1.15,2013-11-06 01:35:00,
2013-11-05 20:40:00,50.6,35.0,30.32,ESE,111,0.0,0.0,55,0.00,,,0.00,Wunderground v.1.15,2013-11-06 01:40:00,
2013-11-05 20:45:00,50.5,34.9,30.32,ESE,105,0.0,0.0,55,0.00,,,0.00,Wunderground v.1.15,2013-11-06 01:45:00,
2013-11-05 20:50:00,50.3,35.6,30.32,ESE,105,0.0,0.0,57,0.00,,,0.00,Wunderground v.1.15,2013-11-06 01:50:00,
2013-11-05 20:55:00,50.2,36.0,30.33,ESE,105,0.0,0.0,58,0.00,,,0.00,Wunderground v.1.15,2013-11-06 01:55:00,
2013-11-05 21:00:00,50.1,35.4,30.33,East,83,1.0,1.0,57,0.00,,,0.00,Wunderground v.1.15,2013-11-06 02:00:00,
2013-11-05 21:05:00,50.1,35.9,30.33,ESE,107,1.0,1.0,58,0.00,,,0.00,Wunderground v.1.15,2013-11-06 02:05:00,
2013-11-05 21:10:00,49.9,35.7,30.33,ESE,107,1.0,1.0,58,0.00,,,0.00,Wunderground v.1.15,2013-11-06 02:10:00,
2013-11-05 21:15:00,49.7,35.9,30.33,ESE,106,1.0,1.0,59,0.00,,,0.00,Wunderground v.1.15,2013-11-06 02:15:00,
2013-11-05 21:20:00,49.7,35.9,30.33,ESE,107,1.0,1.0,59,0.00,,,0.00,Wunderground v.1.15,2013-11-06 02:20:00,
2013-11-05 21:25:00,49.6,36.3,30.34,ESE,108,0.0,1.0,60,0.00,,,0.00,Wunderground v.1.15,2013-11-06 02:25:00,
2013-11-05 21:29:00,49.4,36.9,30.34,ESE,108,1.0,1.0,62,0.00,,,0.00,Wunderground v.1.15,2013-11-06 02:29:00,
2013-11-05 21:35:00,49.3,36.8,30.34,East,91,2.0,3.0,62,0.00,,,0.00,Wunderground v.1.15,2013-11-06 02:35:00,
2013-11-05 21:40:00,49.4,36.5,30.33,ESE,109,2.0,2.0,61,0.00,,,0.00,Wunderground v.1.15,2013-11-06 02:40:00,
2013-11-05 21:45:00,49.6,36.7,30.34,SE,126,2.0,2.0,61,0.00,,,0.00,Wunderground v.1.15,2013-11-06 02:45:00,
2013-11-05 21:50:00,49.6,36.3,30.34,ESE,123,1.0,1.0,60,0.00,,,0.00,Wunderground v.1.15,2013-11-06 02:50:00,
2013-11-05 21:55:00,49.9,36.1,30.33,ESE,118,1.0,1.0,59,0.00,,,0.00,Wunderground v.1.15,2013-11-06 02:55:00,
2013-11-05 22:05:00,50.1,36.3,30.33,ESE,118,0.0,2.0,59,0.00,,,0.00,Wunderground v.1.15,2013-11-06 03:05:00,
2013-11-05 22:10:00,50.1,35.9,30.33,ESE,103,1.0,1.0,58,0.00,,,0.00,Wunderground v.1.15,2013-11-06 03:10:00,
2013-11-05 22:15:00,50.1,36.3,30.33,ESE,103,1.0,1.0,59,0.00,,,0.00,Wunderground v.1.15,2013-11-06 03:15:00,
2013-11-05 22:20:00,50.0,36.2,30.33,ESE,105,0.0,1.0,59,0.00,,,0.00,Wunderground v.1.15,2013-11-06 03:20:00,
2013-11-05 22:25:00,50.0,35.4,30.33,ESE,105,0.0,1.0,57,0.00,,,0.00,Wunderground v.1.15,2013-11-06 03:25:00,
2013-11-05 22:29:00,49.9,35.3,30.33,ESE,106,0.0,0.0,57,0.00,,,0.00,Wunderground v.1.15,2013-11-06 03:29:00,
2013-11-05 22:35:00,49.7,35.5,30.33,ESE,105,0.0,1.0,58,0.00,,,0.00,Wunderground v.1.15,2013-11-06 03:35:00,
2013-11-05 22:40:00,49.4,34.8,30.33,East,95,1.0,1.0,57,0.00,,,0.00,Wunderground v.1.15,2013-11-06 03:40:00,
2013-11-05 22:45:00,49.2,34.6,30.32,ESE,123,2.0,2.0,57,0.00,,,0.00,Wunderground v.1.15,2013-11-06 03:45:00,
2013-11-05 22:49:00,49.5,35.8,30.32,East,82,3.0,3.0,59,0.00,,,0.00,Wunderground v.1.15,2013-11-06 03:49:00,
2013-11-05 22:55:00,49.6,35.8,30.32,East,98,3.0,3.0,59,0.00,,,0.00,Wunderground v.1.15,2013-11-06 03:55:00,
2013-11-05 23:00:00,49.9,35.3,30.32,ESE,113,3.0,3.0,57,0.00,,,0.00,Wunderground v.1.15,2013-11-06 04:00:00,
2013-11-05 23:05:00,50.0,35.8,30.32,SE,126,2.0,3.0,58,0.00,,,0.00,Wunderground v.1.15,2013-11-06 04:05:00,
2013-11-05 23:15:00,49.4,36.1,30.32,ESE,105,2.0,3.0,60,0.00,,,0.00,Wunderground v.1.15,2013-11-06 04:15:00,
2013-11-05 23:20:00,49.3,36.4,30.32,East,84,2.0,5.0,61,0.00,,,0.00,Wunderground v.1.15,2013-11-06 04:20:00,
2013-11-05 23:25:00,49.8,34.3,30.32,ESE,122,2.0,6.0,55,0.00,,,0.00,Wunderground v.1.15,2013-11-06 04:25:00,
2013-11-05 23:30:00,50.5,33.5,30.32,ESE,115,2.0,2.0,52,0.00,,,0.00,Wunderground v.1.15,2013-11-06 04:30:00,
2013-11-05 23:35:00,51.0,33.5,30.32,ESE,119,2.0,2.0,51,0.00,,,0.00,Wunderground v.1.15,2013-11-06 04:35:00,
2013-11-05 23:40:00,51.0,34.5,30.32,ESE,115,1.0,1.0,53,0.00,,,0.00,Wunderground v.1.15,2013-11-06 04:40:00,
2013-11-05 23:45:00,50.8,34.7,30.32,ESE,114,1.0,1.0,54,0.00,,,0.00,Wunderground v.1.15,2013-11-06 04:45:00,
2013-11-05 23:50:00,50.6,35.0,30.31,ESE,114,0.0,0.0,55,0.00,,,0.00,Wunderground v.1.15,2013-11-06 04:50:00,
2013-11-05 23:55:00,50.4,36.2,30.32,ESE,104,0.0,0.0,58,0.00,,,0.00,Wunderground v.1.15,2013-11-06 04:55:00,